createdAt,value
2023-03-15T00:01:29.780Z,3.51
2023-03-15T00:03:32.654Z,3.51
2023-03-15T00:05:34.286Z,3.51
2023-03-15T00:07:35.796Z,3.50
2023-03-15T00:09:37.598Z,3.49
2023-03-15T00:11:39.210Z,3.45
2023-03-15T00:13:41.705Z,3.44
2023-03-15T00:15:48.583Z,3.43
2023-03-15T00:17:50.179Z,3.41
2023-03-15T00:19:53.686Z,3.39
2023-03-15T00:21:55.536Z,3.39
2023-03-15T00:23:57.143Z,3.37
2023-03-15T00:25:58.938Z,3.37
2023-03-15T00:28:00.747Z,3.36
2023-03-15T00:30:02.604Z,3.35
2023-03-15T00:32:05.014Z,3.36
2023-03-15T00:34:06.972Z,3.33
2023-03-15T00:36:11.592Z,3.35
2023-03-15T00:38:14.237Z,3.36
2023-03-15T00:40:16.551Z,3.38
2023-03-15T00:42:18.569Z,3.39
2023-03-15T00:44:20.723Z,3.40
2023-03-15T00:46:23.343Z,3.42
2023-03-15T00:48:25.146Z,3.44
2023-03-15T00:50:27.495Z,3.44
2023-03-15T00:52:36.008Z,3.46
2023-03-15T00:54:37.637Z,3.46
2023-03-15T00:56:40.066Z,3.47
2023-03-15T00:58:42.609Z,3.48
2023-03-15T01:00:46.362Z,3.48
2023-03-15T01:02:48.245Z,3.48
2023-03-15T01:04:50.564Z,3.49
2023-03-15T01:06:53.094Z,3.48
2023-03-15T01:08:57.513Z,3.47
2023-03-15T01:11:02.678Z,3.47
2023-03-15T01:13:04.542Z,3.48
2023-03-15T01:15:09.098Z,3.48
2023-03-15T01:17:11.186Z,3.50
2023-03-15T01:19:14.878Z,3.50
2023-03-15T01:21:16.723Z,3.52
2023-03-15T01:23:18.773Z,3.52
2023-03-15T01:25:21.947Z,3.53
2023-03-15T01:27:23.975Z,3.53
2023-03-15T01:29:25.892Z,3.53
2023-03-15T01:31:29.617Z,3.54
2023-03-15T01:33:31.721Z,3.56
2023-03-15T01:35:33.427Z,3.56
2023-03-15T01:37:35.376Z,3.57
2023-03-15T01:39:37.134Z,3.57
2023-03-15T01:41:40.042Z,3.57
2023-03-15T01:43:42.537Z,3.57
2023-03-15T01:46:00.164Z,3.61
2023-03-15T01:48:03.487Z,3.60
2023-03-15T01:50:12.897Z,3.61
2023-03-15T01:52:19.375Z,3.62
2023-03-15T01:54:27.464Z,3.60
2023-03-15T01:56:31.766Z,3.61
2023-03-15T01:58:37.009Z,3.63
2023-03-15T02:00:40.893Z,3.62
2023-03-15T02:02:50.743Z,3.64
2023-03-15T02:04:57.369Z,3.65
2023-03-15T02:07:02.262Z,3.65
2023-03-15T02:09:08.815Z,3.66
2023-03-15T02:11:11.997Z,3.67
2023-03-15T02:13:17.256Z,3.66
2023-03-15T02:15:20.542Z,3.68
2023-03-15T02:17:29.899Z,3.67
2023-03-15T02:19:41.873Z,3.67
2023-03-15T02:21:52.518Z,3.66
2023-03-15T02:24:03.700Z,3.67
2023-03-15T02:26:18.099Z,3.66
2023-03-15T02:28:21.643Z,3.64
2023-03-15T02:30:23.722Z,3.61
2023-03-15T02:32:26.242Z,3.61
2023-03-15T02:34:28.596Z,3.60
2023-03-15T02:36:31.001Z,3.59
2023-03-15T02:38:32.906Z,3.56
2023-03-15T02:40:35.429Z,3.56
2023-03-15T02:42:37.047Z,3.54
2023-03-15T02:44:43.629Z,3.52
2023-03-15T02:46:48.211Z,3.51
2023-03-15T02:48:51.154Z,3.48
2023-03-15T02:50:52.905Z,3.48
2023-03-15T02:52:55.231Z,3.46
2023-03-15T02:54:57.576Z,3.44
2023-03-15T02:56:59.357Z,3.41
2023-03-15T02:59:01.403Z,3.40
2023-03-15T03:01:05.243Z,3.39
2023-03-15T03:03:07.018Z,3.37
2023-03-15T03:05:09.423Z,3.35
2023-03-15T03:07:11.244Z,3.33
2023-03-15T03:09:13.232Z,3.32
2023-03-15T03:11:16.037Z,3.30
2023-03-15T03:13:17.809Z,3.27
2023-03-15T03:15:20.218Z,3.24
2023-03-15T03:17:23.748Z,3.21
2023-03-15T03:19:26.624Z,3.20
2023-03-15T03:21:28.131Z,3.19
2023-03-15T03:23:31.056Z,3.17
2023-03-15T03:25:33.565Z,3.15
2023-03-15T03:27:36.665Z,3.12
2023-03-15T03:29:39.690Z,3.10
2023-03-15T03:31:41.256Z,3.09
2023-03-15T03:33:45.101Z,3.08
2023-03-15T03:35:48.237Z,3.04
2023-03-15T03:37:49.867Z,3.03
2023-03-15T03:39:51.934Z,3.01
2023-03-15T03:41:54.243Z,3.01
2023-03-15T03:43:56.145Z,2.99
2023-03-15T03:45:57.856Z,2.96
2023-03-15T03:47:59.512Z,2.94
2023-03-15T03:50:02.657Z,2.93
2023-03-15T03:52:04.782Z,2.92
2023-03-15T03:54:06.658Z,2.90
2023-03-15T03:56:09.434Z,2.90
2023-03-15T03:58:11.296Z,2.89
2023-03-15T04:00:15.337Z,2.88
2023-03-15T04:02:17.810Z,2.86
2023-03-15T04:04:19.676Z,2.87
2023-03-15T04:06:23.282Z,2.88
2023-03-15T04:08:26.484Z,2.86
2023-03-15T04:10:29.942Z,2.87
2023-03-15T04:12:32.178Z,2.85
2023-03-15T04:14:34.043Z,2.83
2023-03-15T04:16:35.905Z,2.84
2023-03-15T04:18:38.271Z,2.81
2023-03-15T04:20:40.788Z,2.80
2023-03-15T04:22:44.426Z,2.77
2023-03-15T04:24:46.080Z,2.77
2023-03-15T04:26:47.669Z,2.76
2023-03-15T04:28:49.848Z,2.73
2023-03-15T04:30:51.631Z,2.72
2023-03-15T04:32:54.424Z,2.72
2023-03-15T04:34:56.066Z,2.69
2023-03-15T04:36:58.144Z,2.68
2023-03-15T04:39:01.274Z,2.67
2023-03-15T04:41:02.844Z,2.66
2023-03-15T04:43:05.560Z,2.65
2023-03-15T04:45:08.093Z,2.64
2023-03-15T04:47:10.714Z,2.63
2023-03-15T04:49:12.785Z,2.61
2023-03-15T04:51:14.394Z,2.61
2023-03-15T04:53:16.216Z,2.60
2023-03-15T04:55:19.438Z,2.59
2023-03-15T04:57:21.056Z,2.59
2023-03-15T04:59:22.707Z,2.58
2023-03-15T05:01:28.501Z,2.58
2023-03-15T05:03:30.310Z,2.58
2023-03-15T05:05:33.608Z,2.57
2023-03-15T05:07:36.707Z,2.59
2023-03-15T05:09:40.586Z,2.60
2023-03-15T05:11:43.793Z,2.61
2023-03-15T05:13:45.427Z,2.62
2023-03-15T05:15:47.313Z,2.62
2023-03-15T05:17:49.153Z,2.63
2023-03-15T05:19:51.158Z,2.65
2023-03-15T05:21:52.726Z,2.63
2023-03-15T05:23:56.627Z,2.64
2023-03-15T05:25:58.486Z,2.64
2023-03-15T05:28:03.066Z,2.65
2023-03-15T05:30:06.833Z,2.63
2023-03-15T05:32:08.846Z,2.63
2023-03-15T05:34:10.556Z,2.61
2023-03-15T05:36:12.171Z,2.60
2023-03-15T05:38:14.557Z,2.59
2023-03-15T05:40:16.427Z,2.60
2023-03-15T05:42:19.099Z,2.58
2023-03-15T05:44:24.791Z,2.57
2023-03-15T05:46:26.446Z,2.55
2023-03-15T05:48:28.064Z,2.56
2023-03-15T05:50:29.917Z,2.55
2023-03-15T05:52:31.645Z,2.53
2023-03-15T05:54:33.559Z,2.54
2023-03-15T05:56:35.461Z,2.54
2023-03-15T05:58:37.315Z,2.56
2023-03-15T06:00:40.498Z,2.55
2023-03-15T06:02:42.659Z,2.55
2023-03-15T06:04:44.640Z,2.56
2023-03-15T06:06:46.279Z,2.55
2023-03-15T06:08:47.863Z,2.57
2023-03-15T06:10:50.223Z,2.58
2023-03-15T06:12:51.945Z,2.59
2023-03-15T06:14:53.506Z,2.60
2023-03-15T06:16:56.745Z,2.63
2023-03-15T06:18:58.431Z,2.67
2023-03-15T06:21:00.004Z,2.70
2023-03-15T06:23:01.681Z,2.73
2023-03-15T06:25:03.279Z,2.78
2023-03-15T06:27:05.094Z,2.82
2023-03-15T06:29:07.004Z,2.87
2023-03-15T06:31:09.758Z,2.91
2023-03-15T06:33:13.621Z,2.97
2023-03-15T06:35:15.613Z,3.01
2023-03-15T06:37:28.893Z,3.07
2023-03-15T06:39:35.180Z,3.12
2023-03-15T06:41:37.178Z,3.17
2023-03-15T06:43:38.793Z,3.23
2023-03-15T06:45:40.692Z,3.28
2023-03-15T06:47:42.344Z,3.33
2023-03-15T06:49:45.299Z,3.39
2023-03-15T06:51:47.178Z,3.44
2023-03-15T06:53:48.934Z,3.49
2023-03-15T06:55:50.955Z,3.59
2023-03-15T06:57:52.847Z,3.68
2023-03-15T06:59:56.050Z,3.70
2023-03-15T07:01:57.688Z,3.72
2023-03-15T07:04:00.261Z,3.74
2023-03-15T07:06:03.988Z,3.74
2023-03-15T07:08:06.026Z,3.77
2023-03-15T07:10:08.417Z,3.79
2023-03-15T07:12:11.276Z,3.80
2023-03-15T07:14:13.066Z,3.83
2023-03-15T07:16:14.866Z,3.84
2023-03-15T07:18:17.242Z,3.83
2023-03-15T07:20:19.018Z,3.88
2023-03-15T07:22:23.066Z,3.93
2023-03-15T07:24:24.799Z,3.96
2023-03-15T07:26:26.725Z,3.97
2023-03-15T07:28:29.013Z,4.06
2023-03-15T07:30:30.595Z,4.09
2023-03-15T07:32:32.241Z,4.12
2023-03-15T07:34:33.980Z,4.15
2023-03-15T07:36:35.721Z,4.17
2023-03-15T07:38:39.920Z,4.20
2023-03-15T07:40:42.588Z,4.23
2023-03-15T07:42:44.446Z,4.29
2023-03-15T07:44:46.221Z,4.35
2023-03-15T07:46:47.911Z,4.43
2023-03-15T07:48:49.957Z,4.47
2023-03-15T07:50:52.084Z,4.59
2023-03-15T07:52:54.020Z,4.65
2023-03-15T07:54:57.474Z,4.76
2023-03-15T07:56:59.097Z,4.88
2023-03-15T07:59:03.903Z,4.99
2023-03-15T08:01:05.673Z,5.09
2023-03-15T08:03:07.520Z,5.19
2023-03-15T08:05:09.760Z,5.30
2023-03-15T08:07:11.621Z,5.42
2023-03-15T08:09:13.479Z,5.51
2023-03-15T08:11:16.412Z,5.62
2023-03-15T08:13:18.224Z,5.73
2023-03-15T08:15:20.509Z,5.82
2023-03-15T08:17:22.051Z,5.92
2023-03-15T08:19:23.943Z,6.03
2023-03-15T08:21:27.268Z,6.11
2023-03-15T08:23:31.474Z,6.21
2023-03-15T08:25:33.689Z,6.31
2023-03-15T08:27:40.249Z,6.42
2023-03-15T08:29:42.048Z,6.54
2023-03-15T08:31:46.560Z,6.61
2023-03-15T08:33:48.876Z,6.69
2023-03-15T08:35:54.858Z,6.76
2023-03-15T08:37:56.376Z,6.82
2023-03-15T08:39:58.384Z,6.94
2023-03-15T08:42:00.033Z,7.01
2023-03-15T08:44:03.230Z,7.09
2023-03-15T08:46:05.282Z,7.16
2023-03-15T08:48:06.883Z,7.25
2023-03-15T08:50:11.506Z,7.34
2023-03-15T08:52:13.338Z,7.44
2023-03-15T08:54:15.090Z,7.55
2023-03-15T08:56:17.151Z,7.66
2023-03-15T08:58:19.315Z,7.75
2023-03-15T09:00:23.214Z,7.85
2023-03-15T09:02:25.013Z,7.95
2023-03-15T09:04:26.714Z,8.05
2023-03-15T09:06:28.846Z,8.13
2023-03-15T09:08:30.600Z,8.21
2023-03-15T09:10:32.235Z,8.29
2023-03-15T09:12:33.945Z,8.40
2023-03-15T09:14:35.775Z,8.51
2023-03-15T09:16:38.796Z,8.59
2023-03-15T09:18:40.612Z,8.72
2023-03-15T09:20:42.260Z,8.84
2023-03-15T09:22:51.289Z,8.94
2023-03-15T09:24:52.907Z,9.01
2023-03-15T09:26:54.432Z,9.14
2023-03-15T09:28:56.384Z,9.25
2023-03-15T09:30:59.970Z,9.38
2023-03-15T09:33:04.373Z,9.50
2023-03-15T09:35:09.120Z,9.50
2023-03-15T09:37:10.624Z,9.62
2023-03-15T09:39:12.581Z,9.64
2023-03-15T09:41:20.431Z,9.64
2023-03-15T09:43:40.014Z,9.69
2023-03-15T09:45:55.682Z,9.60
2023-03-15T09:48:08.595Z,9.59
2023-03-15T09:50:19.775Z,9.63
2023-03-15T09:52:33.291Z,9.53
2023-03-15T09:54:41.898Z,9.46
2023-03-15T09:56:52.168Z,9.51
2023-03-15T09:58:58.636Z,9.53
2023-03-15T10:01:05.536Z,9.60
2023-03-15T10:03:16.512Z,9.48
2023-03-15T10:05:23.043Z,9.40
2023-03-15T10:07:24.854Z,9.38
2023-03-15T10:09:32.101Z,9.27
2023-03-15T10:11:43.704Z,9.23
2023-03-15T10:14:00.589Z,9.19
2023-03-15T10:16:16.279Z,9.07
2023-03-15T10:18:34.654Z,9.10
2023-03-15T10:20:41.333Z,9.03
2023-03-15T10:22:51.201Z,9.15
2023-03-15T10:24:57.393Z,9.17
2023-03-15T10:27:04.675Z,9.11
2023-03-15T10:29:14.442Z,9.14
2023-03-15T10:31:25.649Z,9.26
2023-03-15T10:33:38.119Z,9.19
2023-03-15T10:35:39.984Z,9.28
2023-03-15T10:37:42.099Z,9.43
2023-03-15T10:39:46.659Z,9.52
2023-03-15T10:41:50.242Z,9.52
2023-03-15T10:43:58.812Z,9.47
2023-03-15T10:46:02.424Z,9.43
2023-03-15T10:48:04.044Z,9.50
2023-03-15T10:50:11.148Z,9.44
2023-03-15T10:52:31.512Z,9.43
2023-03-15T10:54:34.934Z,9.51
2023-03-15T10:56:44.612Z,9.63
2023-03-15T10:58:55.138Z,9.66
2023-03-15T11:01:13.393Z,9.79
2023-03-15T11:03:18.006Z,9.75
2023-03-15T11:05:21.557Z,9.71
2023-03-15T11:07:23.216Z,9.61
2023-03-15T11:09:29.700Z,9.57
2023-03-15T11:11:49.612Z,9.56
2023-03-15T11:14:04.777Z,9.44
2023-03-15T11:16:14.729Z,9.56
2023-03-15T11:18:24.896Z,9.59
2023-03-15T11:20:30.667Z,9.61
2023-03-15T11:22:32.627Z,9.75
2023-03-15T11:24:34.312Z,9.74
2023-03-15T11:26:39.568Z,9.88
2023-03-15T11:28:48.443Z,10.00
2023-03-15T11:30:50.048Z,10.05
2023-03-15T11:32:53.631Z,10.14
2023-03-15T11:35:01.084Z,10.02
2023-03-15T11:37:13.238Z,9.98
2023-03-15T11:39:24.463Z,9.93
2023-03-15T11:41:33.005Z,9.86
2023-03-15T11:43:45.815Z,9.88
2023-03-15T11:45:54.218Z,9.98
2023-03-15T11:48:00.029Z,10.02
2023-03-15T11:50:02.222Z,10.17
2023-03-15T11:52:06.162Z,10.31
2023-03-15T11:54:14.230Z,10.42
2023-03-15T11:56:25.059Z,10.52
2023-03-15T11:58:29.323Z,10.54
2023-03-15T12:00:49.771Z,10.71
2023-03-15T12:02:54.383Z,10.65
2023-03-15T12:04:57.207Z,10.61
2023-03-15T12:07:03.052Z,10.57
2023-03-15T12:09:38.026Z,10.58
2023-03-15T12:11:42.562Z,10.49
2023-03-15T12:13:53.244Z,10.42
2023-03-15T12:15:55.811Z,10.34
2023-03-15T12:17:58.984Z,10.31
2023-03-15T12:20:06.887Z,10.27
2023-03-15T12:22:15.604Z,10.37
2023-03-15T12:24:23.572Z,10.49
2023-03-15T12:26:38.175Z,10.56
2023-03-15T12:28:44.064Z,10.58
2023-03-15T12:30:45.909Z,10.50
2023-03-15T12:32:51.874Z,10.63
2023-03-15T12:34:56.338Z,10.67
2023-03-15T12:37:04.940Z,10.60
2023-03-15T12:39:22.182Z,10.54
2023-03-15T12:41:37.222Z,10.55
2023-03-15T12:43:42.221Z,10.46
2023-03-15T12:45:45.460Z,10.53
2023-03-15T12:48:07.777Z,10.56
2023-03-15T12:50:38.921Z,10.70
2023-03-15T12:52:42.776Z,10.79
2023-03-15T12:54:49.696Z,10.88
2023-03-15T12:56:57.449Z,11.00
2023-03-15T12:59:04.573Z,11.06
2023-03-15T13:01:08.460Z,11.13
2023-03-15T13:03:16.561Z,11.19
2023-03-15T13:05:25.904Z,11.23
2023-03-15T13:07:51.069Z,11.24
2023-03-15T13:10:13.209Z,11.34
2023-03-15T13:12:24.697Z,11.39
2023-03-15T13:14:38.269Z,11.45
2023-03-15T13:16:44.089Z,11.48
2023-03-15T13:18:56.956Z,11.41
2023-03-15T13:21:11.916Z,11.32
2023-03-15T13:23:18.628Z,11.26
2023-03-15T13:25:28.699Z,11.32
2023-03-15T13:27:43.973Z,11.31
2023-03-15T13:29:45.556Z,11.31
2023-03-15T13:32:00.749Z,11.32
2023-03-15T13:34:12.170Z,11.31
2023-03-15T13:36:16.098Z,11.16
2023-03-15T13:38:26.190Z,11.09
2023-03-15T13:40:28.489Z,10.99
2023-03-15T13:42:30.067Z,10.89
2023-03-15T13:44:32.924Z,10.84
2023-03-15T13:46:34.629Z,10.79
2023-03-15T13:48:42.853Z,10.79
2023-03-15T13:50:48.845Z,10.70
2023-03-15T13:52:50.480Z,10.70
2023-03-15T13:54:54.108Z,10.70
2023-03-15T13:56:59.941Z,10.63
2023-03-15T13:59:03.032Z,10.64
2023-03-15T14:01:09.611Z,10.65
2023-03-15T14:03:16.754Z,10.64
2023-03-15T14:05:24.062Z,10.65
2023-03-15T14:07:29.503Z,10.70
2023-03-15T14:09:31.620Z,10.71
2023-03-15T14:11:37.648Z,10.71
2023-03-15T14:13:49.489Z,10.69
2023-03-15T14:15:56.883Z,10.57
2023-03-15T14:18:01.908Z,10.51
2023-03-15T14:20:07.159Z,10.43
2023-03-15T14:22:14.939Z,10.33
2023-03-15T14:24:22.816Z,10.27
2023-03-15T14:26:28.077Z,10.16
2023-03-15T14:28:33.157Z,10.08
2023-03-15T14:30:37.019Z,10.02
2023-03-15T14:32:52.059Z,9.96
2023-03-15T14:35:00.481Z,9.90
2023-03-15T14:37:04.142Z,9.81
2023-03-15T14:39:17.522Z,9.76
2023-03-15T14:41:34.115Z,9.72
2023-03-15T14:43:38.368Z,9.63
2023-03-15T14:45:42.520Z,9.57
2023-03-15T14:47:55.991Z,9.52
2023-03-15T14:49:58.222Z,9.44
2023-03-15T14:52:02.710Z,9.37
2023-03-15T14:54:04.726Z,9.31
2023-03-15T14:56:06.988Z,9.25
2023-03-15T14:58:12.932Z,9.19
2023-03-15T15:00:17.968Z,9.12
2023-03-15T15:02:20.029Z,9.06
2023-03-15T15:04:22.502Z,9.00
2023-03-15T15:06:26.585Z,8.98
2023-03-15T15:08:31.031Z,8.93
2023-03-15T15:10:33.954Z,8.87
2023-03-15T15:12:35.565Z,8.85
2023-03-15T15:14:37.456Z,8.81
2023-03-15T15:16:40.702Z,8.77
2023-03-15T15:18:42.782Z,8.75
2023-03-15T15:20:46.415Z,8.80
2023-03-15T15:22:48.636Z,8.84
2023-03-15T15:24:51.425Z,8.84
2023-03-15T15:26:53.446Z,8.84
2023-03-15T15:28:55.005Z,8.82
2023-03-15T15:30:57.263Z,8.83
2023-03-15T15:33:00.611Z,8.85
2023-03-15T15:35:02.557Z,8.84
2023-03-15T15:37:04.307Z,8.85
2023-03-15T15:39:18.094Z,8.80
2023-03-15T15:41:23.509Z,8.81
2023-03-15T15:43:25.125Z,8.83
2023-03-15T15:45:26.777Z,8.82
2023-03-15T15:47:28.765Z,8.81
2023-03-15T15:49:31.852Z,8.81
2023-03-15T15:51:36.821Z,8.82
2023-03-15T15:53:38.393Z,8.84
2023-03-15T15:55:39.942Z,8.85
2023-03-15T15:57:42.806Z,8.87
2023-03-15T15:59:44.334Z,8.86
2023-03-15T16:01:59.390Z,8.85
2023-03-15T16:04:03.051Z,8.84
2023-03-15T16:06:06.869Z,8.80
2023-03-15T16:08:18.521Z,8.75
2023-03-15T16:10:22.312Z,8.70
2023-03-15T16:12:25.365Z,8.64
2023-03-15T16:14:26.922Z,8.57
2023-03-15T16:16:28.634Z,8.51
2023-03-15T16:18:30.528Z,8.44
2023-03-15T16:20:32.177Z,8.39
2023-03-15T16:22:37.720Z,8.34
2023-03-15T16:24:41.539Z,8.29
2023-03-15T16:26:45.217Z,8.26
2023-03-15T16:28:46.861Z,8.21
2023-03-15T16:30:48.659Z,8.16
2023-03-15T16:32:50.907Z,8.13
2023-03-15T16:34:53.603Z,8.07
2023-03-15T16:36:55.350Z,8.03
2023-03-15T16:39:00.860Z,8.00
2023-03-15T16:41:02.465Z,7.94
2023-03-15T16:43:04.281Z,7.89
2023-03-15T16:45:12.342Z,7.84
2023-03-15T16:47:13.921Z,7.79
2023-03-15T16:49:15.756Z,7.73
2023-03-15T16:51:17.868Z,7.71
2023-03-15T16:53:19.412Z,7.67
2023-03-15T16:55:26.074Z,7.64
2023-03-15T16:57:27.764Z,7.58
2023-03-15T16:59:29.506Z,7.54
2023-03-15T17:01:32.360Z,7.50
2023-03-15T17:03:34.169Z,7.45
2023-03-15T17:05:38.706Z,7.42
2023-03-15T17:07:40.500Z,7.36
2023-03-15T17:09:44.373Z,7.32
2023-03-15T17:11:49.875Z,7.27
2023-03-15T17:13:51.929Z,7.22
2023-03-15T17:15:53.602Z,7.16
2023-03-15T17:17:57.013Z,7.11
2023-03-15T17:19:58.806Z,7.07
2023-03-15T17:22:00.750Z,7.02
2023-03-15T17:24:03.746Z,6.96
2023-03-15T17:26:10.092Z,6.91
2023-03-15T17:28:13.090Z,6.87
2023-03-15T17:30:17.714Z,6.81
2023-03-15T17:32:20.079Z,6.77
2023-03-15T17:34:22.139Z,6.72
2023-03-15T17:36:26.438Z,6.66
2023-03-15T17:38:30.425Z,6.61
2023-03-15T17:40:34.922Z,6.54
2023-03-15T17:42:36.722Z,6.48
2023-03-15T17:44:41.145Z,6.41
2023-03-15T17:46:42.798Z,6.35
2023-03-15T17:48:44.550Z,6.30
2023-03-15T17:50:46.195Z,6.25
2023-03-15T17:52:52.953Z,6.20
2023-03-15T17:54:54.485Z,6.15
2023-03-15T17:56:57.172Z,6.11
2023-03-15T17:58:58.822Z,6.07
2023-03-15T18:01:01.934Z,6.01
2023-03-15T18:03:03.871Z,5.97
2023-03-15T18:05:13.311Z,5.90
2023-03-15T18:07:14.911Z,5.86
2023-03-15T18:09:16.520Z,5.79
2023-03-15T18:11:23.787Z,5.76
2023-03-15T18:13:27.162Z,5.72
2023-03-15T18:15:28.836Z,5.68
2023-03-15T18:17:31.980Z,5.64
2023-03-15T18:19:33.575Z,5.61
2023-03-15T18:21:35.432Z,5.58
2023-03-15T18:23:37.011Z,5.54
2023-03-15T18:25:39.099Z,5.51
2023-03-15T18:27:40.956Z,5.47
2023-03-15T18:29:43.960Z,5.44
2023-03-15T18:31:45.613Z,5.40
2023-03-15T18:33:50.192Z,5.37
2023-03-15T18:35:52.176Z,5.34
2023-03-15T18:37:54.464Z,5.31
2023-03-15T18:39:56.195Z,5.27
2023-03-15T18:41:58.595Z,5.24
2023-03-15T18:44:00.328Z,5.20
2023-03-15T18:46:02.224Z,5.17
2023-03-15T18:48:04.633Z,5.15
2023-03-15T18:50:10.912Z,5.12
2023-03-15T18:52:14.707Z,5.09
2023-03-15T18:54:16.284Z,5.06
2023-03-15T18:56:20.426Z,5.02
2023-03-15T18:58:22.349Z,4.99
2023-03-15T19:00:26.539Z,4.97
2023-03-15T19:02:28.665Z,4.94
2023-03-15T19:04:30.386Z,4.91
2023-03-15T19:06:33.479Z,4.88
2023-03-15T19:08:35.815Z,4.85
2023-03-15T19:10:37.423Z,4.82
2023-03-15T19:12:39.023Z,4.80
2023-03-15T19:14:40.867Z,4.78
2023-03-15T19:16:43.284Z,4.75
2023-03-15T19:18:44.940Z,4.73
2023-03-15T19:20:46.718Z,4.72
2023-03-15T19:22:51.189Z,4.69
2023-03-15T19:24:52.795Z,4.67
2023-03-15T19:26:54.355Z,4.65
2023-03-15T19:28:56.213Z,4.59
2023-03-15T19:30:58.398Z,4.60
2023-03-15T19:33:00.224Z,4.60
2023-03-15T19:35:02.088Z,4.58
2023-03-15T19:37:03.652Z,4.57
2023-03-15T19:39:06.773Z,4.56
2023-03-15T19:41:11.378Z,4.54
2023-03-15T19:43:14.746Z,4.53
2023-03-15T19:45:21.254Z,4.53
2023-03-15T19:47:23.869Z,4.52
2023-03-15T19:49:25.870Z,4.49
2023-03-15T19:51:27.687Z,4.49
2023-03-15T19:53:31.315Z,4.49
2023-03-15T19:55:35.179Z,4.48
2023-03-15T19:57:37.252Z,4.47
2023-03-15T19:59:40.365Z,4.46
2023-03-15T20:01:42.021Z,4.45
2023-03-15T20:03:43.852Z,4.44
2023-03-15T20:05:45.449Z,4.43
2023-03-15T20:07:48.434Z,4.42
2023-03-15T20:09:50.061Z,4.40
2023-03-15T20:11:52.925Z,4.38
2023-03-15T20:13:54.925Z,4.38
2023-03-15T20:15:56.971Z,4.36
2023-03-15T20:17:58.827Z,4.34
2023-03-15T20:20:00.436Z,4.33
2023-03-15T20:22:01.998Z,4.31
2023-03-15T20:24:04.128Z,4.30
2023-03-15T20:26:08.912Z,4.27
2023-03-15T20:28:12.178Z,4.27
2023-03-15T20:30:16.448Z,4.23
2023-03-15T20:32:18.057Z,4.21
2023-03-15T20:34:19.679Z,4.19
2023-03-15T20:36:21.694Z,4.17
2023-03-15T20:38:23.530Z,4.15
2023-03-15T20:40:25.654Z,4.13
2023-03-15T20:42:28.717Z,4.10
2023-03-15T20:44:33.470Z,4.08
2023-03-15T20:46:36.242Z,4.07
2023-03-15T20:48:37.905Z,4.04
2023-03-15T20:50:39.792Z,4.03
2023-03-15T20:52:41.857Z,4.01
2023-03-15T20:54:43.479Z,3.98
2023-03-15T20:56:45.621Z,3.96
2023-03-15T20:58:47.630Z,3.95
2023-03-15T21:00:50.980Z,3.93
2023-03-15T21:02:53.028Z,3.91
2023-03-15T21:04:54.755Z,3.90
2023-03-15T21:06:56.588Z,3.89
2023-03-15T21:08:58.412Z,3.87
2023-03-15T21:11:00.943Z,3.86
2023-03-15T21:13:02.940Z,3.85
2023-03-15T21:15:06.073Z,3.83
2023-03-15T21:17:09.294Z,3.82
2023-03-15T21:19:10.944Z,3.81
2023-03-15T21:21:12.697Z,3.81
2023-03-15T21:23:14.752Z,3.79
2023-03-15T21:25:16.521Z,3.77
2023-03-15T21:27:18.364Z,3.76
2023-03-15T21:29:20.165Z,3.75
2023-03-15T21:31:22.022Z,3.74
2023-03-15T21:33:27.423Z,3.74
2023-03-15T21:35:29.073Z,3.73
2023-03-15T21:37:30.718Z,3.70
2023-03-15T21:39:32.362Z,3.69
2023-03-15T21:41:34.528Z,3.68
2023-03-15T21:43:37.707Z,3.68
2023-03-15T21:45:40.096Z,3.66
2023-03-15T21:47:42.280Z,3.66
2023-03-15T21:49:45.532Z,3.64
2023-03-15T21:51:47.384Z,3.64
2023-03-15T21:53:48.989Z,3.61
2023-03-15T21:55:50.794Z,3.60
2023-03-15T21:57:52.755Z,3.57
2023-03-15T21:59:54.509Z,3.57
2023-03-15T22:01:56.905Z,3.57
2023-03-15T22:04:00.617Z,3.56
2023-03-15T22:06:03.757Z,3.56
2023-03-15T22:08:06.016Z,3.54
2023-03-15T22:10:09.009Z,3.53
2023-03-15T22:12:10.921Z,3.53
2023-03-15T22:14:13.033Z,3.52
2023-03-15T22:16:14.912Z,3.51
2023-03-15T22:18:16.554Z,3.50
2023-03-15T22:20:20.201Z,3.49
2023-03-15T22:22:25.198Z,3.48
2023-03-15T22:24:26.756Z,3.48
2023-03-15T22:26:32.124Z,3.47
2023-03-15T22:28:33.699Z,3.46
2023-03-15T22:30:35.486Z,3.44
2023-03-15T22:32:37.198Z,3.44
2023-03-15T22:34:39.226Z,3.43
2023-03-15T22:36:41.345Z,3.42
2023-03-15T22:38:44.464Z,3.40
2023-03-15T22:40:46.940Z,3.41
2023-03-15T22:42:48.965Z,3.38
2023-03-15T22:44:52.248Z,3.39
2023-03-15T22:46:54.468Z,3.38
2023-03-15T22:48:55.996Z,3.37
2023-03-15T22:50:59.424Z,3.37
2023-03-15T22:53:01.524Z,3.37
2023-03-15T22:55:05.924Z,3.36
2023-03-15T22:57:08.133Z,3.35
2023-03-15T22:59:10.157Z,3.35
2023-03-15T23:01:11.779Z,3.33
2023-03-15T23:03:13.440Z,3.31
2023-03-15T23:05:15.234Z,3.30
2023-03-15T23:07:16.907Z,3.29
2023-03-15T23:09:19.177Z,3.29
2023-03-15T23:11:23.759Z,3.29
2023-03-15T23:13:25.804Z,3.27
2023-03-15T23:15:27.499Z,3.27
2023-03-15T23:17:30.972Z,3.27
2023-03-15T23:19:33.186Z,3.26
2023-03-15T23:21:34.926Z,3.25
2023-03-15T23:23:36.838Z,3.23
2023-03-15T23:25:40.058Z,3.24
2023-03-15T23:27:43.307Z,3.23
2023-03-15T23:29:54.168Z,3.22
2023-03-15T23:31:56.866Z,3.22
2023-03-15T23:33:58.514Z,3.23
2023-03-15T23:36:00.452Z,3.21
2023-03-15T23:38:02.435Z,3.20
2023-03-15T23:40:05.596Z,3.21
2023-03-15T23:42:07.460Z,3.19
2023-03-15T23:44:11.273Z,3.19
2023-03-15T23:46:12.966Z,3.18
2023-03-15T23:48:14.775Z,3.18
2023-03-15T23:50:17.609Z,3.16
2023-03-15T23:52:19.102Z,3.16
2023-03-15T23:54:20.873Z,3.14
2023-03-15T23:56:22.706Z,3.15
2023-03-15T23:58:24.588Z,3.14
